METAR Data
IDs: Format: Raw Decoded Include TAF

Data at: 0136 UTC 06 Dec 2019

METAR for:KFDK (Frederick Muni, MD, US)
Text:KFDK 060047Z 31010KT 10SM OVC150 04/M04 A3011
Temperature: 4.0°C ( 39°F)
Dewpoint: -4.0°C ( 25°F) [RH = 56%]
Pressure (altimeter):30.11 inches Hg (1019.7 mb)
Winds:from the NW (310 degrees) at 12 MPH (10 knots; 5.1 m/s)
Visibility:10 or more sm (16+ km)
Ceiling:15000 feet AGL
Clouds: overcast cloud deck at 15000 feet AGL